الصفحة الرئيسية
METAR-TAF:

METAR-TAF

مطار :

مطار جناح الدولي

كراتشي, باكستان

دائرة عرض: 24-54N, خط طول: 067-08E, ارتفاع: 21 متر

مراقبة الطقس الحالي

تاريخ ووقت الإصدار 45 دقيقة قبل الساعة 16:55UTC
رياح هادئة
درجة الحرارة 24°درجة مئوية
الرطوبة 47%
ضغط 1011 hPa
الرؤية: 5000 متر
دخان

METAR: OPKC 171655Z 00000KT 5000 FU NSC 24/12 Q1011 NOSIG

زمن: 22:40 (17:40 UTC)

توقعات

تاريخ ووقت الإصدار 1ساعة و 40 دقيقة قبل الساعة 16:00UTC
التوقعات صالحة من17 الساعة 18 UTC إلى 18 الساعة 24 UTC
ريح 6 عقدة من الغرب
الرؤية: 5000 متر
العجاج
مؤقت
من 18 الساعة 01 UTC إلى 18 الساعة 05 UTC
ريح 5 عقدة من الشمال/الشمال الغربي
الرؤية: 1500 متر
غشاء
أصبح
من 18 الساعة 05 UTC إلى 18 الساعة 07 UTC
ريح 7 عقدة من الشمال الغربي
الرؤية: 5000 متر
العجاج
من 18 الساعة 1000 UTC
ريح 10 عقدة من الغرب/الجنوب الغربي
الرؤية: 6000 متر

TAF: OPKC 171600Z 1718/1824 27006KT 5000 HZ NSC TEMPO 1801/1805 34005KT 1500 BR NSC BECMG 1805/1807 31007KT 5000 HZ NSC FM181000 25010KT 6000 NSC

أرصاد الطقس والتوقعات من أكثر من 4000 مطار (تقارير الطقس للمطار METAR والتنبؤ بالطقس بالمطارTAF).

المحطات المتاحة هي النقط الصفراء والحمراء على الخريطة.

حرك المؤشر فوق النقطة لمعرفة اسم المحطة.

ثم انقر لمعرفة أرصاد وتوقعات الطقس.

لتغيير الخارطة: اضغط على الأزرار الخضراء مع رمز الصليب الأسود للتكبير. على الزر الأخضر مع شرطة للتصغير، أو على الأسهم الخضراء للخرائط المجاورة.


METAR-TAF: